sensor_id;sensor_type;location;lat;lon;timestamp;P1;durP1;ratioP1;P2;durP2;ratioP2
16973;SDS011;8603;46.944;7.412;2023-03-04T00:01:44;42.60;;;23.07;;
16973;SDS011;8603;46.944;7.412;2023-03-04T00:04:09;41.93;;;23.20;;
16973;SDS011;8603;46.944;7.412;2023-03-04T00:06:35;40.03;;;24.13;;
16973;SDS011;8603;46.944;7.412;2023-03-04T00:09:01;45.23;;;24.23;;
16973;SDS011;8603;46.944;7.412;2023-03-04T00:11:28;41.77;;;23.00;;
16973;SDS011;8603;46.944;7.412;2023-03-04T00:13:54;42.00;;;23.17;;
16973;SDS011;8603;46.944;7.412;2023-03-04T00:16:19;41.33;;;22.87;;
16973;SDS011;8603;46.944;7.412;2023-03-04T00:18:45;42.50;;;23.23;;
16973;SDS011;8603;46.944;7.412;2023-03-04T00:21:11;46.37;;;22.70;;
16973;SDS011;8603;46.944;7.412;2023-03-04T00:23:36;43.47;;;23.80;;
16973;SDS011;8603;46.944;7.412;2023-03-04T00:26:02;40.37;;;22.10;;
16973;SDS011;8603;46.944;7.412;2023-03-04T00:28:27;45.87;;;23.23;;
16973;SDS011;8603;46.944;7.412;2023-03-04T00:30:53;44.97;;;24.53;;
16973;SDS011;8603;46.944;7.412;2023-03-04T00:33:19;45.63;;;24.03;;
16973;SDS011;8603;46.944;7.412;2023-03-04T00:35:44;48.17;;;25.23;;
16973;SDS011;8603;46.944;7.412;2023-03-04T00:38:10;42.63;;;23.60;;
16973;SDS011;8603;46.944;7.412;2023-03-04T00:40:36;47.20;;;25.40;;
16973;SDS011;8603;46.944;7.412;2023-03-04T00:43:01;42.53;;;23.87;;
16973;SDS011;8603;46.944;7.412;2023-03-04T00:45:27;41.37;;;23.10;;
16973;SDS011;8603;46.944;7.412;2023-03-04T00:47:53;42.67;;;23.90;;
16973;SDS011;8603;46.944;7.412;2023-03-04T00:50:18;42.80;;;23.33;;
16973;SDS011;8603;46.944;7.412;2023-03-04T00:52:44;45.97;;;25.07;;
16973;SDS011;8603;46.944;7.412;2023-03-04T00:55:10;43.53;;;24.27;;
16973;SDS011;8603;46.944;7.412;2023-03-04T00:57:35;44.90;;;24.30;;
16973;SDS011;8603;46.944;7.412;2023-03-04T01:00:01;39.57;;;22.87;;
16973;SDS011;8603;46.944;7.412;2023-03-04T01:02:28;42.43;;;24.27;;
16973;SDS011;8603;46.944;7.412;2023-03-04T01:04:54;42.83;;;22.63;;
16973;SDS011;8603;46.944;7.412;2023-03-04T01:07:20;43.43;;;23.13;;
16973;SDS011;8603;46.944;7.412;2023-03-04T01:09:45;45.73;;;24.97;;
16973;SDS011;8603;46.944;7.412;2023-03-04T01:12:11;47.43;;;24.47;;
16973;SDS011;8603;46.944;7.412;2023-03-04T01:14:36;45.07;;;23.80;;
16973;SDS011;8603;46.944;7.412;2023-03-04T01:17:02;47.07;;;23.50;;
16973;SDS011;8603;46.944;7.412;2023-03-04T01:19:28;44.43;;;24.37;;
16973;SDS011;8603;46.944;7.412;2023-03-04T01:21:53;42.53;;;23.50;;
16973;SDS011;8603;46.944;7.412;2023-03-04T01:24:19;38.03;;;22.57;;
16973;SDS011;8603;46.944;7.412;2023-03-04T01:26:44;39.20;;;22.33;;
16973;SDS011;8603;46.944;7.412;2023-03-04T01:29:10;38.37;;;22.57;;
16973;SDS011;8603;46.944;7.412;2023-03-04T01:31:35;39.70;;;22.33;;
16973;SDS011;8603;46.944;7.412;2023-03-04T01:34:01;38.40;;;22.17;;
16973;SDS011;8603;46.944;7.412;2023-03-04T01:36:27;42.03;;;23.37;;
16973;SDS011;8603;46.944;7.412;2023-03-04T01:38:52;44.93;;;23.17;;
16973;SDS011;8603;46.944;7.412;2023-03-04T01:41:22;45.37;;;23.63;;
16973;SDS011;8603;46.944;7.412;2023-03-04T01:43:49;40.27;;;21.27;;
16973;SDS011;8603;46.944;7.412;2023-03-04T01:46:15;37.60;;;21.87;;
16973;SDS011;8603;46.944;7.412;2023-03-04T01:48:41;47.33;;;24.70;;
16973;SDS011;8603;46.944;7.412;2023-03-04T01:51:13;45.50;;;24.23;;
16973;SDS011;8603;46.944;7.412;2023-03-04T01:53:40;43.90;;;23.93;;
16973;SDS011;8603;46.944;7.412;2023-03-04T01:56:11;44.03;;;23.70;;
16973;SDS011;8603;46.944;7.412;2023-03-04T01:58:39;41.73;;;23.00;;
16973;SDS011;8603;46.944;7.412;2023-03-04T02:01:06;41.60;;;23.07;;
16973;SDS011;8603;46.944;7.412;2023-03-04T02:03:34;45.80;;;24.43;;
16973;SDS011;8603;46.944;7.412;2023-03-04T02:05:59;45.33;;;22.33;;
16973;SDS011;8603;46.944;7.412;2023-03-04T02:08:25;45.00;;;24.10;;
16973;SDS011;8603;46.944;7.412;2023-03-04T02:10:51;45.03;;;23.53;;
16973;SDS011;8603;46.944;7.412;2023-03-04T02:13:17;39.90;;;21.97;;
16973;SDS011;8603;46.944;7.412;2023-03-04T02:15:44;44.07;;;24.03;;
16973;SDS011;8603;46.944;7.412;2023-03-04T02:23:34;40.50;;;22.57;;
16973;SDS011;8603;46.944;7.412;2023-03-04T02:26:20;40.57;;;22.20;;
16973;SDS011;8603;46.944;7.412;2023-03-04T02:28:49;42.97;;;23.53;;
16973;SDS011;8603;46.944;7.412;2023-03-04T02:31:37;44.10;;;24.07;;
16973;SDS011;8603;46.944;7.412;2023-03-04T02:34:04;44.60;;;22.93;;
16973;SDS011;8603;46.944;7.412;2023-03-04T02:36:45;46.33;;;23.97;;
16973;SDS011;8603;46.944;7.412;2023-03-04T02:41:45;39.73;;;22.50;;
16973;SDS011;8603;46.944;7.412;2023-03-04T02:44:16;39.63;;;21.90;;
16973;SDS011;8603;46.944;7.412;2023-03-04T02:46:42;40.60;;;22.17;;
16973;SDS011;8603;46.944;7.412;2023-03-04T02:49:08;43.30;;;23.30;;
16973;SDS011;8603;46.944;7.412;2023-03-04T02:51:33;43.17;;;23.67;;
16973;SDS011;8603;46.944;7.412;2023-03-04T02:53:59;46.77;;;23.40;;
16973;SDS011;8603;46.944;7.412;2023-03-04T02:56:24;45.00;;;24.30;;
16973;SDS011;8603;46.944;7.412;2023-03-04T02:58:50;42.30;;;22.77;;
16973;SDS011;8603;46.944;7.412;2023-03-04T03:01:15;43.33;;;22.73;;
16973;SDS011;8603;46.944;7.412;2023-03-04T03:03:41;43.70;;;23.83;;
16973;SDS011;8603;46.944;7.412;2023-03-04T03:06:07;49.00;;;24.47;;
16973;SDS011;8603;46.944;7.412;2023-03-04T03:08:32;45.20;;;22.87;;
16973;SDS011;8603;46.944;7.412;2023-03-04T03:10:58;41.10;;;22.33;;
16973;SDS011;8603;46.944;7.412;2023-03-04T03:13:23;47.60;;;25.40;;
16973;SDS011;8603;46.944;7.412;2023-03-04T03:15:49;44.07;;;23.97;;
16973;SDS011;8603;46.944;7.412;2023-03-04T03:18:15;49.30;;;25.30;;
16973;SDS011;8603;46.944;7.412;2023-03-04T03:20:41;51.83;;;24.30;;
16973;SDS011;8603;46.944;7.412;2023-03-04T03:23:06;46.50;;;23.93;;
16973;SDS011;8603;46.944;7.412;2023-03-04T03:25:32;42.50;;;22.67;;
16973;SDS011;8603;46.944;7.412;2023-03-04T03:27:58;42.07;;;22.60;;
16973;SDS011;8603;46.944;7.412;2023-03-04T03:30:23;40.50;;;22.60;;
16973;SDS011;8603;46.944;7.412;2023-03-04T03:32:49;43.10;;;23.27;;
16973;SDS011;8603;46.944;7.412;2023-03-04T03:35:15;46.20;;;23.47;;
16973;SDS011;8603;46.944;7.412;2023-03-04T03:37:41;44.77;;;22.93;;
16973;SDS011;8603;46.944;7.412;2023-03-04T03:40:06;47.77;;;23.93;;
16973;SDS011;8603;46.944;7.412;2023-03-04T03:42:32;48.97;;;24.93;;
16973;SDS011;8603;46.944;7.412;2023-03-04T03:44:58;46.47;;;22.87;;
16973;SDS011;8603;46.944;7.412;2023-03-04T03:47:24;41.67;;;23.13;;
16973;SDS011;8603;46.944;7.412;2023-03-04T03:49:49;44.87;;;23.07;;
16973;SDS011;8603;46.944;7.412;2023-03-04T03:52:15;42.27;;;21.83;;
16973;SDS011;8603;46.944;7.412;2023-03-04T03:54:40;46.03;;;25.27;;
16973;SDS011;8603;46.944;7.412;2023-03-04T03:57:07;48.30;;;26.10;;
16973;SDS011;8603;46.944;7.412;2023-03-04T03:59:32;45.97;;;23.37;;
16973;SDS011;8603;46.944;7.412;2023-03-04T04:01:58;44.53;;;22.30;;
16973;SDS011;8603;46.944;7.412;2023-03-04T04:04:24;46.23;;;24.13;;
16973;SDS011;8603;46.944;7.412;2023-03-04T04:06:50;44.20;;;24.03;;
16973;SDS011;8603;46.944;7.412;2023-03-04T04:09:15;43.77;;;23.07;;
16973;SDS011;8603;46.944;7.412;2023-03-04T04:11:41;45.97;;;24.33;;
16973;SDS011;8603;46.944;7.412;2023-03-04T04:14:07;44.87;;;23.27;;
16973;SDS011;8603;46.944;7.412;2023-03-04T04:16:36;48.70;;;24.60;;
16973;SDS011;8603;46.944;7.412;2023-03-04T04:19:02;45.93;;;24.83;;
16973;SDS011;8603;46.944;7.412;2023-03-04T04:21:27;47.90;;;24.80;;
16973;SDS011;8603;46.944;7.412;2023-03-04T04:23:53;47.30;;;25.37;;
16973;SDS011;8603;46.944;7.412;2023-03-04T04:26:18;49.30;;;25.80;;
16973;SDS011;8603;46.944;7.412;2023-03-04T04:28:44;49.93;;;24.53;;
16973;SDS011;8603;46.944;7.412;2023-03-04T04:31:09;48.53;;;23.73;;
16973;SDS011;8603;46.944;7.412;2023-03-04T04:33:35;44.97;;;22.93;;
16973;SDS011;8603;46.944;7.412;2023-03-04T04:36:01;47.27;;;24.40;;
16973;SDS011;8603;46.944;7.412;2023-03-04T04:38:28;53.17;;;25.27;;
16973;SDS011;8603;46.944;7.412;2023-03-04T04:40:55;46.33;;;24.40;;
16973;SDS011;8603;46.944;7.412;2023-03-04T04:43:22;48.13;;;24.40;;
16973;SDS011;8603;46.944;7.412;2023-03-04T04:45:48;46.10;;;23.93;;
16973;SDS011;8603;46.944;7.412;2023-03-04T04:48:13;44.73;;;22.43;;
16973;SDS011;8603;46.944;7.412;2023-03-04T04:50:39;43.93;;;24.13;;
16973;SDS011;8603;46.944;7.412;2023-03-04T04:53:05;48.77;;;28.20;;
16973;SDS011;8603;46.944;7.412;2023-03-04T04:55:30;40.83;;;24.70;;
16973;SDS011;8603;46.944;7.412;2023-03-04T04:57:57;43.90;;;24.70;;
16973;SDS011;8603;46.944;7.412;2023-03-04T05:00:23;49.20;;;24.80;;
16973;SDS011;8603;46.944;7.412;2023-03-04T05:02:48;49.47;;;25.63;;
16973;SDS011;8603;46.944;7.412;2023-03-04T05:05:14;45.17;;;23.97;;
16973;SDS011;8603;46.944;7.412;2023-03-04T05:07:40;47.20;;;24.17;;
16973;SDS011;8603;46.944;7.412;2023-03-04T05:10:05;42.97;;;23.17;;
16973;SDS011;8603;46.944;7.412;2023-03-04T05:12:31;46.67;;;23.50;;
16973;SDS011;8603;46.944;7.412;2023-03-04T05:14:57;43.30;;;24.37;;
16973;SDS011;8603;46.944;7.412;2023-03-04T05:17:22;46.60;;;23.50;;
16973;SDS011;8603;46.944;7.412;2023-03-04T05:19:48;47.30;;;25.13;;
16973;SDS011;8603;46.944;7.412;2023-03-04T05:22:14;40.47;;;22.00;;
16973;SDS011;8603;46.944;7.412;2023-03-04T05:24:39;43.07;;;23.50;;
16973;SDS011;8603;46.944;7.412;2023-03-04T05:27:05;44.73;;;23.10;;
16973;SDS011;8603;46.944;7.412;2023-03-04T05:29:31;44.67;;;24.57;;
16973;SDS011;8603;46.944;7.412;2023-03-04T05:31:56;41.57;;;23.50;;
16973;SDS011;8603;46.944;7.412;2023-03-04T05:34:24;47.60;;;24.27;;
16973;SDS011;8603;46.944;7.412;2023-03-04T05:36:50;45.53;;;24.57;;
16973;SDS011;8603;46.944;7.412;2023-03-04T05:39:16;45.77;;;24.37;;
16973;SDS011;8603;46.944;7.412;2023-03-04T05:41:41;48.77;;;24.80;;
16973;SDS011;8603;46.944;7.412;2023-03-04T05:44:07;46.50;;;23.87;;
16973;SDS011;8603;46.944;7.412;2023-03-04T05:46:33;49.83;;;24.83;;
16973;SDS011;8603;46.944;7.412;2023-03-04T05:48:58;48.83;;;24.27;;
16973;SDS011;8603;46.944;7.412;2023-03-04T05:51:24;44.97;;;24.07;;
16973;SDS011;8603;46.944;7.412;2023-03-04T05:53:49;43.60;;;23.77;;
16973;SDS011;8603;46.944;7.412;2023-03-04T05:56:17;42.43;;;23.43;;
16973;SDS011;8603;46.944;7.412;2023-03-04T05:58:43;48.77;;;24.73;;
16973;SDS011;8603;46.944;7.412;2023-03-04T06:01:11;44.23;;;23.37;;
16973;SDS011;8603;46.944;7.412;2023-03-04T06:03:37;43.13;;;23.90;;
16973;SDS011;8603;46.944;7.412;2023-03-04T06:06:03;50.33;;;24.00;;
16973;SDS011;8603;46.944;7.412;2023-03-04T06:08:29;42.83;;;22.77;;
16973;SDS011;8603;46.944;7.412;2023-03-04T06:10:55;46.63;;;24.10;;
16973;SDS011;8603;46.944;7.412;2023-03-04T06:13:21;51.20;;;24.27;;
16973;SDS011;8603;46.944;7.412;2023-03-04T06:15:52;48.13;;;23.93;;
16973;SDS011;8603;46.944;7.412;2023-03-04T06:18:21;45.57;;;23.53;;
16973;SDS011;8603;46.944;7.412;2023-03-04T06:20:50;45.50;;;23.87;;
16973;SDS011;8603;46.944;7.412;2023-03-04T06:23:19;49.40;;;24.87;;
16973;SDS011;8603;46.944;7.412;2023-03-04T06:25:44;49.17;;;24.63;;
16973;SDS011;8603;46.944;7.412;2023-03-04T06:28:10;47.03;;;25.33;;
16973;SDS011;8603;46.944;7.412;2023-03-04T06:30:37;48.67;;;24.63;;
16973;SDS011;8603;46.944;7.412;2023-03-04T06:33:02;51.50;;;25.60;;
16973;SDS011;8603;46.944;7.412;2023-03-04T06:35:28;45.47;;;22.53;;
16973;SDS011;8603;46.944;7.412;2023-03-04T06:37:57;46.13;;;24.57;;
16973;SDS011;8603;46.944;7.412;2023-03-04T06:43:15;46.13;;;24.97;;
16973;SDS011;8603;46.944;7.412;2023-03-04T06:45:49;49.20;;;25.77;;
16973;SDS011;8603;46.944;7.412;2023-03-04T06:48:18;45.30;;;24.13;;
16973;SDS011;8603;46.944;7.412;2023-03-04T06:50:46;48.00;;;24.67;;
16973;SDS011;8603;46.944;7.412;2023-03-04T06:53:12;41.87;;;23.00;;
16973;SDS011;8603;46.944;7.412;2023-03-04T06:55:38;42.83;;;23.23;;
16973;SDS011;8603;46.944;7.412;2023-03-04T06:58:06;40.57;;;23.40;;
16973;SDS011;8603;46.944;7.412;2023-03-04T07:00:45;39.83;;;22.60;;
16973;SDS011;8603;46.944;7.412;2023-03-04T07:03:11;39.77;;;23.27;;
16973;SDS011;8603;46.944;7.412;2023-03-04T07:05:49;40.17;;;22.53;;
16973;SDS011;8603;46.944;7.412;2023-03-04T07:08:18;40.13;;;22.23;;
16973;SDS011;8603;46.944;7.412;2023-03-04T07:10:51;37.60;;;22.03;;
16973;SDS011;8603;46.944;7.412;2023-03-04T07:16:54;40.07;;;22.90;;
16973;SDS011;8603;46.944;7.412;2023-03-04T07:19:20;35.80;;;21.30;;
16973;SDS011;8603;46.944;7.412;2023-03-04T07:21:46;35.40;;;25.02;;
16973;SDS011;8603;46.944;7.412;2023-03-04T07:24:12;34.50;;;22.17;;
16973;SDS011;8603;46.944;7.412;2023-03-04T07:26:42;35.80;;;24.65;;
16973;SDS011;8603;46.944;7.412;2023-03-04T07:29:28;38.50;;;23.58;;
16973;SDS011;8603;46.944;7.412;2023-03-04T07:32:09;36.23;;;23.00;;
16973;SDS011;8603;46.944;7.412;2023-03-04T07:34:50;40.13;;;24.23;;
16973;SDS011;8603;46.944;7.412;2023-03-04T07:37:15;41.53;;;26.33;;
16973;SDS011;8603;46.944;7.412;2023-03-04T07:39:57;36.43;;;22.27;;
16973;SDS011;8603;46.944;7.412;2023-03-04T07:42:59;34.67;;;21.80;;
16973;SDS011;8603;46.944;7.412;2023-03-04T07:45:32;33.70;;;21.90;;
16973;SDS011;8603;46.944;7.412;2023-03-04T07:47:58;33.97;;;22.37;;
16973;SDS011;8603;46.944;7.412;2023-03-04T07:50:29;34.13;;;21.53;;
16973;SDS011;8603;46.944;7.412;2023-03-04T07:52:57;33.67;;;23.00;;
16973;SDS011;8603;46.944;7.412;2023-03-04T07:55:23;34.13;;;21.70;;
16973;SDS011;8603;46.944;7.412;2023-03-04T07:57:49;36.93;;;23.10;;
16973;SDS011;8603;46.944;7.412;2023-03-04T08:00:25;37.83;;;23.13;;
16973;SDS011;8603;46.944;7.412;2023-03-04T08:02:54;39.43;;;24.90;;
16973;SDS011;8603;46.944;7.412;2023-03-04T08:05:20;39.83;;;24.13;;
16973;SDS011;8603;46.944;7.412;2023-03-04T08:07:48;36.93;;;24.27;;
16973;SDS011;8603;46.944;7.412;2023-03-04T08:10:14;39.53;;;26.03;;
16973;SDS011;8603;46.944;7.412;2023-03-04T08:12:54;41.27;;;26.10;;
16973;SDS011;8603;46.944;7.412;2023-03-04T08:15:25;35.90;;;24.53;;
16973;SDS011;8603;46.944;7.412;2023-03-04T08:18:03;38.67;;;23.63;;
16973;SDS011;8603;46.944;7.412;2023-03-04T08:20:43;37.07;;;24.53;;
16973;SDS011;8603;46.944;7.412;2023-03-04T08:23:12;33.40;;;23.10;;
16973;SDS011;8603;46.944;7.412;2023-03-04T08:25:45;37.37;;;26.30;;
16973;SDS011;8603;46.944;7.412;2023-03-04T08:31:12;32.67;;;24.58;;
16973;SDS011;8603;46.944;7.412;2023-03-04T08:33:40;36.70;;;27.10;;
16973;SDS011;8603;46.944;7.412;2023-03-04T08:36:06;35.20;;;25.27;;
16973;SDS011;8603;46.944;7.412;2023-03-04T08:38:32;33.97;;;24.55;;
16973;SDS011;8603;46.944;7.412;2023-03-04T08:40:58;34.08;;;27.67;;
16973;SDS011;8603;46.944;7.412;2023-03-04T08:43:27;34.67;;;27.45;;
16973;SDS011;8603;46.944;7.412;2023-03-04T08:45:54;33.50;;;26.98;;
16973;SDS011;8603;46.944;7.412;2023-03-04T08:48:20;34.38;;;27.58;;
16973;SDS011;8603;46.944;7.412;2023-03-04T08:50:47;34.78;;;27.95;;
16973;SDS011;8603;46.944;7.412;2023-03-04T08:53:13;37.83;;;28.02;;
16973;SDS011;8603;46.944;7.412;2023-03-04T08:55:42;37.10;;;28.23;;
16973;SDS011;8603;46.944;7.412;2023-03-04T08:58:09;35.22;;;29.08;;
16973;SDS011;8603;46.944;7.412;2023-03-04T09:00:36;36.20;;;28.35;;
16973;SDS011;8603;46.944;7.412;2023-03-04T09:03:09;33.88;;;28.05;;
16973;SDS011;8603;46.944;7.412;2023-03-04T09:05:44;38.83;;;30.08;;
16973;SDS011;8603;46.944;7.412;2023-03-04T09:08:18;34.15;;;26.73;;
16973;SDS011;8603;46.944;7.412;2023-03-04T09:10:45;33.97;;;26.90;;
16973;SDS011;8603;46.944;7.412;2023-03-04T09:13:11;34.33;;;26.40;;
16973;SDS011;8603;46.944;7.412;2023-03-04T09:15:44;32.80;;;26.08;;
16973;SDS011;8603;46.944;7.412;2023-03-04T09:18:11;33.03;;;27.30;;
16973;SDS011;8603;46.944;7.412;2023-03-04T09:20:37;35.40;;;26.88;;
16973;SDS011;8603;46.944;7.412;2023-03-04T09:23:03;32.83;;;26.45;;
16973;SDS011;8603;46.944;7.412;2023-03-04T09:25:28;34.05;;;27.30;;
16973;SDS011;8603;46.944;7.412;2023-03-04T09:27:57;35.13;;;27.02;;
16973;SDS011;8603;46.944;7.412;2023-03-04T09:30:33;33.70;;;26.90;;
16973;SDS011;8603;46.944;7.412;2023-03-04T09:33:02;39.35;;;28.25;;
16973;SDS011;8603;46.944;7.412;2023-03-04T09:35:34;35.47;;;27.08;;
16973;SDS011;8603;46.944;7.412;2023-03-04T09:38:12;39.40;;;28.20;;
16973;SDS011;8603;46.944;7.412;2023-03-04T09:40:45;41.17;;;26.92;;
16973;SDS011;8603;46.944;7.412;2023-03-04T09:43:25;39.72;;;27.77;;
16973;SDS011;8603;46.944;7.412;2023-03-04T09:45:54;36.80;;;25.55;;
16973;SDS011;8603;46.944;7.412;2023-03-04T09:48:27;36.88;;;25.73;;
16973;SDS011;8603;46.944;7.412;2023-03-04T10:05:19;37.07;;;23.83;;
16973;SDS011;8603;46.944;7.412;2023-03-04T10:11:44;36.73;;;22.43;;
16973;SDS011;8603;46.944;7.412;2023-03-04T10:14:29;32.03;;;20.07;;
16973;SDS011;8603;46.944;7.412;2023-03-04T10:23:35;37.27;;;21.97;;
16973;SDS011;8603;46.944;7.412;2023-03-04T10:26:09;37.77;;;23.27;;
16973;SDS011;8603;46.944;7.412;2023-03-04T10:28:49;35.70;;;22.80;;
16973;SDS011;8603;46.944;7.412;2023-03-04T10:31:42;36.17;;;21.67;;
16973;SDS011;8603;46.944;7.412;2023-03-04T10:34:35;37.67;;;23.27;;
16973;SDS011;8603;46.944;7.412;2023-03-04T10:37:02;39.07;;;23.10;;
16973;SDS011;8603;46.944;7.412;2023-03-04T10:39:36;36.83;;;22.50;;
16973;SDS011;8603;46.944;7.412;2023-03-04T10:44:41;34.47;;;23.07;;
16973;SDS011;8603;46.944;7.412;2023-03-04T10:47:31;35.13;;;21.80;;
16973;SDS011;8603;46.944;7.412;2023-03-04T10:50:20;34.93;;;20.97;;
16973;SDS011;8603;46.944;7.412;2023-03-04T10:53:00;38.57;;;22.73;;
16973;SDS011;8603;46.944;7.412;2023-03-04T10:56:07;34.33;;;22.03;;
16973;SDS011;8603;46.944;7.412;2023-03-04T11:01:58;36.73;;;22.00;;
16973;SDS011;8603;46.944;7.412;2023-03-04T11:11:36;33.37;;;21.50;;
16973;SDS011;8603;46.944;7.412;2023-03-04T11:27:36;32.67;;;20.47;;
16973;SDS011;8603;46.944;7.412;2023-03-04T11:33:36;30.60;;;20.10;;
16973;SDS011;8603;46.944;7.412;2023-03-04T11:39:51;32.17;;;19.97;;
16973;SDS011;8603;46.944;7.412;2023-03-04T11:42:43;31.67;;;21.27;;
16973;SDS011;8603;46.944;7.412;2023-03-04T11:45:20;33.13;;;20.47;;
16973;SDS011;8603;46.944;7.412;2023-03-04T11:48:15;30.67;;;18.97;;
16973;SDS011;8603;46.944;7.412;2023-03-04T11:51:27;34.17;;;19.27;;
16973;SDS011;8603;46.944;7.412;2023-03-04T12:01:07;26.97;;;17.17;;
16973;SDS011;8603;46.944;7.412;2023-03-04T12:23:10;17.00;;;9.63;;
16973;SDS011;8603;46.944;7.412;2023-03-04T12:26:00;20.00;;;11.20;;
16973;SDS011;8603;46.944;7.412;2023-03-04T12:37:39;18.67;;;10.10;;
16973;SDS011;8603;46.944;7.412;2023-03-04T12:40:49;18.90;;;11.33;;
16973;SDS011;8603;46.944;7.412;2023-03-04T12:49:14;20.53;;;11.53;;
16973;SDS011;8603;46.944;7.412;2023-03-04T12:57:04;22.70;;;13.47;;
16973;SDS011;8603;46.944;7.412;2023-03-04T12:59:39;21.20;;;13.60;;
16973;SDS011;8603;46.944;7.412;2023-03-04T13:08:12;21.27;;;13.93;;
16973;SDS011;8603;46.944;7.412;2023-03-04T13:10:46;20.33;;;12.83;;
16973;SDS011;8603;46.944;7.412;2023-03-04T13:16:00;20.97;;;13.07;;
16973;SDS011;8603;46.944;7.412;2023-03-04T13:18:31;22.03;;;13.67;;
16973;SDS011;8603;46.944;7.412;2023-03-04T13:21:06;20.80;;;13.27;;
16973;SDS011;8603;46.944;7.412;2023-03-04T13:23:51;22.97;;;13.83;;
16973;SDS011;8603;46.944;7.412;2023-03-04T13:26:27;21.30;;;13.73;;
16973;SDS011;8603;46.944;7.412;2023-03-04T13:31:55;27.20;;;14.37;;
16973;SDS011;8603;46.944;7.412;2023-03-04T13:42:51;28.30;;;15.00;;
16973;SDS011;8603;46.944;7.412;2023-03-04T13:48:32;18.27;;;12.70;;
16973;SDS011;8603;46.944;7.412;2023-03-04T13:51:00;23.43;;;14.67;;
16973;SDS011;8603;46.944;7.412;2023-03-04T13:53:36;23.27;;;15.23;;
16973;SDS011;8603;46.944;7.412;2023-03-04T13:59:01;26.60;;;14.70;;
16973;SDS011;8603;46.944;7.412;2023-03-04T14:01:35;21.90;;;15.40;;
16973;SDS011;8603;46.944;7.412;2023-03-04T14:04:09;27.40;;;15.93;;
16973;SDS011;8603;46.944;7.412;2023-03-04T14:06:50;26.83;;;15.47;;
16973;SDS011;8603;46.944;7.412;2023-03-04T14:09:18;26.90;;;15.67;;
16973;SDS011;8603;46.944;7.412;2023-03-04T14:11:47;22.83;;;14.60;;
16973;SDS011;8603;46.944;7.412;2023-03-04T14:14:19;26.23;;;15.23;;
16973;SDS011;8603;46.944;7.412;2023-03-04T14:16:49;21.83;;;15.00;;
16973;SDS011;8603;46.944;7.412;2023-03-04T14:19:20;22.67;;;14.87;;
16973;SDS011;8603;46.944;7.412;2023-03-04T14:21:49;25.77;;;15.97;;
16973;SDS011;8603;46.944;7.412;2023-03-04T14:24:16;28.63;;;17.23;;
16973;SDS011;8603;46.944;7.412;2023-03-04T14:26:44;28.33;;;17.10;;
16973;SDS011;8603;46.944;7.412;2023-03-04T14:31:47;29.73;;;16.73;;
16973;SDS011;8603;46.944;7.412;2023-03-04T14:34:15;31.37;;;18.30;;
16973;SDS011;8603;46.944;7.412;2023-03-04T14:36:57;31.17;;;19.67;;
16973;SDS011;8603;46.944;7.412;2023-03-04T14:39:23;31.77;;;20.80;;
16973;SDS011;8603;46.944;7.412;2023-03-04T14:41:51;32.20;;;20.50;;
16973;SDS011;8603;46.944;7.412;2023-03-04T14:44:36;37.27;;;20.00;;
16973;SDS011;8603;46.944;7.412;2023-03-04T14:47:07;35.13;;;18.80;;
16973;SDS011;8603;46.944;7.412;2023-03-04T14:49:36;26.07;;;18.03;;
16973;SDS011;8603;46.944;7.412;2023-03-04T14:52:03;34.67;;;19.27;;
16973;SDS011;8603;46.944;7.412;2023-03-04T14:54:31;31.20;;;18.33;;
16973;SDS011;8603;46.944;7.412;2023-03-04T14:57:21;31.57;;;18.33;;
16973;SDS011;8603;46.944;7.412;2023-03-04T14:59:50;26.33;;;15.80;;
16973;SDS011;8603;46.944;7.412;2023-03-04T15:02:17;26.97;;;16.87;;
16973;SDS011;8603;46.944;7.412;2023-03-04T15:05:09;26.83;;;16.17;;
16973;SDS011;8603;46.944;7.412;2023-03-04T15:07:41;23.90;;;16.33;;
16973;SDS011;8603;46.944;7.412;2023-03-04T15:10:10;29.83;;;18.90;;
16973;SDS011;8603;46.944;7.412;2023-03-04T15:12:36;33.17;;;20.00;;
16973;SDS011;8603;46.944;7.412;2023-03-04T15:15:48;32.93;;;20.40;;
16973;SDS011;8603;46.944;7.412;2023-03-04T15:17:58;33.20;;;19.97;;
16973;SDS011;8603;46.944;7.412;2023-03-04T15:20:31;30.47;;;18.07;;
16973;SDS011;8603;46.944;7.412;2023-03-04T15:22:58;32.10;;;20.27;;
16973;SDS011;8603;46.944;7.412;2023-03-04T15:25:25;32.87;;;20.13;;
16973;SDS011;8603;46.944;7.412;2023-03-04T15:27:51;33.47;;;19.13;;
16973;SDS011;8603;46.944;7.412;2023-03-04T15:30:19;33.57;;;21.60;;
16973;SDS011;8603;46.944;7.412;2023-03-04T15:32:48;29.50;;;19.93;;
16973;SDS011;8603;46.944;7.412;2023-03-04T15:35:15;35.63;;;22.20;;
16973;SDS011;8603;46.944;7.412;2023-03-04T15:37:41;34.17;;;20.20;;
16973;SDS011;8603;46.944;7.412;2023-03-04T15:42:42;37.10;;;21.03;;
16973;SDS011;8603;46.944;7.412;2023-03-04T15:45:11;32.40;;;20.63;;
16973;SDS011;8603;46.944;7.412;2023-03-04T15:47:46;36.63;;;20.80;;
16973;SDS011;8603;46.944;7.412;2023-03-04T15:50:12;32.90;;;19.40;;
16973;SDS011;8603;46.944;7.412;2023-03-04T15:52:38;40.17;;;20.40;;
16973;SDS011;8603;46.944;7.412;2023-03-04T15:55:05;32.23;;;20.17;;
16973;SDS011;8603;46.944;7.412;2023-03-04T15:57:31;33.63;;;19.53;;
16973;SDS011;8603;46.944;7.412;2023-03-04T16:00:07;31.13;;;19.77;;
16973;SDS011;8603;46.944;7.412;2023-03-04T16:02:37;33.13;;;20.03;;
16973;SDS011;8603;46.944;7.412;2023-03-04T16:05:12;31.87;;;20.43;;
16973;SDS011;8603;46.944;7.412;2023-03-04T16:08:04;34.80;;;20.80;;
16973;SDS011;8603;46.944;7.412;2023-03-04T16:10:30;34.17;;;20.27;;
16973;SDS011;8603;46.944;7.412;2023-03-04T16:13:01;35.70;;;20.50;;
16973;SDS011;8603;46.944;7.412;2023-03-04T16:18:41;34.50;;;21.40;;
16973;SDS011;8603;46.944;7.412;2023-03-04T16:21:07;32.90;;;19.90;;
16973;SDS011;8603;46.944;7.412;2023-03-04T16:23:52;31.67;;;20.17;;
16973;SDS011;8603;46.944;7.412;2023-03-04T16:26:39;31.37;;;19.87;;
16973;SDS011;8603;46.944;7.412;2023-03-04T16:29:07;32.90;;;19.67;;
16973;SDS011;8603;46.944;7.412;2023-03-04T16:31:34;32.97;;;20.40;;
16973;SDS011;8603;46.944;7.412;2023-03-04T16:40:05;30.90;;;18.20;;
16973;SDS011;8603;46.944;7.412;2023-03-04T16:45:36;27.73;;;18.80;;
16973;SDS011;8603;46.944;7.412;2023-03-04T16:51:42;26.97;;;17.90;;
16973;SDS011;8603;46.944;7.412;2023-03-04T17:04:29;26.83;;;17.13;;
16973;SDS011;8603;46.944;7.412;2023-03-04T17:07:13;28.57;;;17.10;;
16973;SDS011;8603;46.944;7.412;2023-03-04T17:14:48;25.33;;;16.43;;
16973;SDS011;8603;46.944;7.412;2023-03-04T17:17:23;26.67;;;17.40;;
16973;SDS011;8603;46.944;7.412;2023-03-04T17:29:15;30.17;;;16.93;;
16973;SDS011;8603;46.944;7.412;2023-03-04T17:31:48;27.80;;;16.53;;
16973;SDS011;8603;46.944;7.412;2023-03-04T17:34:22;24.33;;;15.97;;
16973;SDS011;8603;46.944;7.412;2023-03-04T17:36:54;30.33;;;15.97;;
16973;SDS011;8603;46.944;7.412;2023-03-04T17:39:33;27.87;;;16.40;;
16973;SDS011;8603;46.944;7.412;2023-03-04T17:45:08;25.83;;;15.67;;
16973;SDS011;8603;46.944;7.412;2023-03-04T17:47:44;23.20;;;14.67;;
16973;SDS011;8603;46.944;7.412;2023-03-04T17:50:58;24.43;;;15.63;;
16973;SDS011;8603;46.944;7.412;2023-03-04T17:53:27;23.20;;;14.73;;
16973;SDS011;8603;46.944;7.412;2023-03-04T17:55:56;27.33;;;15.60;;
16973;SDS011;8603;46.944;7.412;2023-03-04T17:58:25;25.23;;;15.47;;
16973;SDS011;8603;46.944;7.412;2023-03-04T18:01:17;28.23;;;16.60;;
16973;SDS011;8603;46.944;7.412;2023-03-04T18:03:44;25.60;;;15.37;;
16973;SDS011;8603;46.944;7.412;2023-03-04T18:06:10;24.90;;;14.57;;
16973;SDS011;8603;46.944;7.412;2023-03-04T18:08:36;25.07;;;15.37;;